createdAt,value
2018-12-14T00:01:50.458Z,3.64
2018-12-14T00:04:17.948Z,3.65
2018-12-14T00:06:45.430Z,3.62
2018-12-14T00:09:12.846Z,3.62
2018-12-14T00:11:45.568Z,3.47
2018-12-14T00:14:07.772Z,3.46
2018-12-14T00:16:36.208Z,3.39
2018-12-14T00:19:03.627Z,3.43
2018-12-14T00:21:31.869Z,3.45
2018-12-14T00:23:59.288Z,3.33
2018-12-14T00:26:26.709Z,3.41
2018-12-14T00:28:54.515Z,3.32
2018-12-14T00:31:21.941Z,3.38
2018-12-14T00:33:49.385Z,3.37
2018-12-14T00:36:17.791Z,3.23
2018-12-14T00:38:45.205Z,3.18
2018-12-14T00:41:12.637Z,3.18
2018-12-14T00:43:40.051Z,3.20
2018-12-14T00:46:07.479Z,3.26
2018-12-14T00:48:34.883Z,3.28
2018-12-14T00:51:02.408Z,3.35
2018-12-14T00:53:29.917Z,3.35
2018-12-14T00:55:57.403Z,3.38
2018-12-14T00:58:24.802Z,3.40
2018-12-14T01:00:52.251Z,3.49
2018-12-14T01:03:19.691Z,3.50
2018-12-14T01:05:47.107Z,3.53
2018-12-14T01:08:14.512Z,3.63
2018-12-14T01:10:41.974Z,3.70
2018-12-14T01:13:09.396Z,3.62
2018-12-14T01:15:36.795Z,3.49
2018-12-14T01:18:05.910Z,3.46
2018-12-14T01:20:33.385Z,3.48
2018-12-14T01:23:00.784Z,3.45
2018-12-14T01:25:28.187Z,3.41
2018-12-14T01:27:55.623Z,3.47
2018-12-14T01:30:23.311Z,3.59
2018-12-14T01:32:50.727Z,3.61
2018-12-14T01:35:18.152Z,3.73
2018-12-14T01:37:45.550Z,3.81
2018-12-14T01:40:13.605Z,3.90
2018-12-14T01:42:41.033Z,3.90
2018-12-14T01:45:08.419Z,3.78
2018-12-14T01:47:35.840Z,3.80
2018-12-14T01:50:03.268Z,3.86
2018-12-14T01:52:30.689Z,3.79
2018-12-14T01:54:58.144Z,3.87
2018-12-14T01:57:25.540Z,3.93
2018-12-14T01:59:52.946Z,4.06
2018-12-14T02:02:20.394Z,3.95
2018-12-14T02:04:47.911Z,3.90
2018-12-14T02:07:15.376Z,3.85
2018-12-14T02:09:42.829Z,3.84
2018-12-14T02:12:11.377Z,3.83
2018-12-14T02:14:37.796Z,3.81
2018-12-14T02:17:05.232Z,3.85
2018-12-14T02:19:32.726Z,3.83
2018-12-14T02:22:00.441Z,3.81
2018-12-14T02:24:28.854Z,3.86
2018-12-14T02:26:56.401Z,3.91
2018-12-14T02:29:23.800Z,3.92
2018-12-14T02:31:51.227Z,3.87
2018-12-14T02:34:18.669Z,3.98
2018-12-14T02:36:46.207Z,3.95
2018-12-14T02:39:13.709Z,3.89
2018-12-14T02:41:41.058Z,3.87
2018-12-14T02:44:08.638Z,3.83
2018-12-14T02:46:36.051Z,3.87
2018-12-14T02:49:03.558Z,3.86
2018-12-14T02:51:31.447Z,3.77
2018-12-14T02:53:58.834Z,3.76
2018-12-14T02:56:26.595Z,3.79
2018-12-14T02:58:54.011Z,3.82
2018-12-14T03:01:21.425Z,3.83
2018-12-14T03:03:48.859Z,3.83
2018-12-14T03:06:16.352Z,3.81
2018-12-14T03:08:43.757Z,3.83
2018-12-14T03:11:11.366Z,3.78
2018-12-14T03:13:38.831Z,3.74
2018-12-14T03:16:06.335Z,3.76
2018-12-14T03:18:33.850Z,3.79
2018-12-14T03:21:01.581Z,3.83
2018-12-14T03:23:29.162Z,3.83
2018-12-14T03:25:56.580Z,3.80
2018-12-14T03:28:24.030Z,3.79
2018-12-14T03:30:51.462Z,3.82
2018-12-14T03:33:19.020Z,3.91
2018-12-14T03:35:46.609Z,3.96
2018-12-14T03:38:14.001Z,3.95
2018-12-14T03:40:41.439Z,3.89
2018-12-14T03:43:08.872Z,3.86
2018-12-14T03:45:36.269Z,3.92
2018-12-14T03:48:03.717Z,4.06
2018-12-14T03:50:31.680Z,4.08
2018-12-14T03:52:59.095Z,3.97
2018-12-14T03:55:26.620Z,3.92
2018-12-14T03:57:54.032Z,3.96
2018-12-14T04:00:21.447Z,4.04
2018-12-14T04:02:48.878Z,4.05
2018-12-14T04:05:16.305Z,4.01
2018-12-14T04:07:43.718Z,4.06
2018-12-14T04:10:11.127Z,4.10
2018-12-14T04:12:41.803Z,4.02
2018-12-14T04:15:06.281Z,3.99
2018-12-14T04:17:33.715Z,3.98
2018-12-14T04:20:01.151Z,3.92
2018-12-14T04:22:28.590Z,3.96
2018-12-14T04:24:56.036Z,3.94
2018-12-14T04:27:23.447Z,4.00
2018-12-14T04:29:50.854Z,4.02
2018-12-14T04:32:18.260Z,3.97
2018-12-14T04:34:45.671Z,3.95
2018-12-14T04:37:13.188Z,3.96
2018-12-14T04:39:40.602Z,4.01
2018-12-14T04:42:08.022Z,3.97
2018-12-14T04:44:35.433Z,4.01
2018-12-14T04:47:02.867Z,4.01
2018-12-14T04:49:30.268Z,4.00
2018-12-14T04:51:57.671Z,3.98
2018-12-14T04:54:25.080Z,4.05
2018-12-14T04:56:53.099Z,4.12
2018-12-14T04:59:20.516Z,4.04
2018-12-14T05:01:47.959Z,3.99
2018-12-14T05:04:15.363Z,3.96
2018-12-14T05:06:42.782Z,3.93
2018-12-14T05:09:10.189Z,3.92
2018-12-14T05:11:39.238Z,3.96
2018-12-14T05:14:05.166Z,3.99
2018-12-14T05:16:32.556Z,3.83
2018-12-14T05:19:00.013Z,3.77
2018-12-14T05:21:27.893Z,3.75
2018-12-14T05:23:55.312Z,3.73
2018-12-14T05:26:23.731Z,3.83
2018-12-14T05:28:51.172Z,3.90
2018-12-14T05:31:18.597Z,3.90
2018-12-14T05:33:46.037Z,3.89
2018-12-14T05:36:13.437Z,3.93
2018-12-14T05:38:40.895Z,3.98
2018-12-14T05:41:08.311Z,4.01
2018-12-14T05:43:35.736Z,3.94
2018-12-14T05:46:03.379Z,4.00
2018-12-14T05:48:30.806Z,4.10
2018-12-14T05:50:58.225Z,3.97
2018-12-14T05:53:25.631Z,3.94
2018-12-14T05:55:53.425Z,4.03
2018-12-14T05:58:20.827Z,3.98
2018-12-14T06:00:48.234Z,3.96
2018-12-14T06:03:15.747Z,3.90
2018-12-14T06:05:43.172Z,3.90
2018-12-14T06:08:10.760Z,3.98
2018-12-14T06:10:38.310Z,3.96
2018-12-14T06:13:09.097Z,3.86
2018-12-14T06:15:33.190Z,3.77
2018-12-14T06:18:00.687Z,3.73
2018-12-14T06:20:29.036Z,3.87
2018-12-14T06:22:56.461Z,4.10
2018-12-14T06:25:24.581Z,4.10
2018-12-14T06:27:52.016Z,4.14
2018-12-14T06:30:19.447Z,4.10
2018-12-14T06:32:46.875Z,4.03
2018-12-14T06:35:14.446Z,4.10
2018-12-14T06:37:41.863Z,4.00
2018-12-14T06:40:09.269Z,3.92
2018-12-14T06:42:37.491Z,3.91
2018-12-14T06:45:04.948Z,3.98
2018-12-14T06:47:32.386Z,3.90
2018-12-14T06:49:59.819Z,3.89
2018-12-14T06:52:27.238Z,3.88
2018-12-14T06:54:54.636Z,3.89
2018-12-14T06:57:22.599Z,3.91
2018-12-14T06:59:49.995Z,3.95
2018-12-14T07:02:17.436Z,3.98
2018-12-14T07:04:44.884Z,3.92
2018-12-14T07:07:12.289Z,3.86
2018-12-14T07:09:39.794Z,3.94
2018-12-14T07:12:07.364Z,3.87
2018-12-14T07:14:34.841Z,3.88
2018-12-14T07:17:02.340Z,3.86
2018-12-14T07:19:29.829Z,3.84
2018-12-14T07:21:57.230Z,3.91
2018-12-14T07:24:24.739Z,3.97
2018-12-14T07:26:52.127Z,4.00
2018-12-14T07:29:19.654Z,3.97
2018-12-14T07:31:47.191Z,4.00
2018-12-14T07:34:14.744Z,4.02
2018-12-14T07:36:42.262Z,4.04
2018-12-14T07:39:09.705Z,4.07
2018-12-14T07:41:37.116Z,3.98
2018-12-14T07:44:04.533Z,3.94
2018-12-14T07:46:31.991Z,3.87
2018-12-14T07:48:59.413Z,3.86
2018-12-14T07:51:26.832Z,3.87
2018-12-14T07:53:54.242Z,3.87
2018-12-14T07:56:21.655Z,3.85
2018-12-14T07:58:49.129Z,3.94
2018-12-14T08:01:16.617Z,4.01
2018-12-14T08:03:44.032Z,3.90
2018-12-14T08:06:12.041Z,3.91
2018-12-14T08:08:39.461Z,3.89
2018-12-14T08:11:06.863Z,3.93
2018-12-14T08:13:34.892Z,4.05
2018-12-14T08:16:01.744Z,4.16
2018-12-14T08:18:29.792Z,4.18
2018-12-14T08:20:57.179Z,4.16
2018-12-14T08:23:24.600Z,4.16
2018-12-14T08:25:52.618Z,4.26
2018-12-14T08:28:20.036Z,4.26
2018-12-14T08:30:47.532Z,4.25
2018-12-14T08:33:14.947Z,4.15
2018-12-14T08:35:42.397Z,4.08
2018-12-14T08:38:09.830Z,4.16
2018-12-14T08:40:37.245Z,4.16
2018-12-14T08:43:04.665Z,4.19
2018-12-14T08:45:32.121Z,4.28
2018-12-14T08:47:59.555Z,4.24
2018-12-14T08:50:26.963Z,4.19
2018-12-14T08:52:55.237Z,4.11
2018-12-14T08:55:22.660Z,4.10
2018-12-14T08:57:50.060Z,4.24
2018-12-14T09:00:17.489Z,4.29
2018-12-14T09:02:44.906Z,4.31
2018-12-14T09:05:12.516Z,4.38
2018-12-14T09:07:39.931Z,4.35
2018-12-14T09:10:07.331Z,4.51
2018-12-14T09:12:34.767Z,4.46
2018-12-14T09:15:02.181Z,4.38
2018-12-14T09:17:29.790Z,4.39
2018-12-14T09:19:57.249Z,4.49
2018-12-14T09:22:25.466Z,4.55
2018-12-14T09:24:52.935Z,4.48
2018-12-14T09:27:20.355Z,4.50
2018-12-14T09:29:47.764Z,4.70
2018-12-14T09:32:15.303Z,4.74
2018-12-14T09:34:42.744Z,4.80
2018-12-14T09:37:10.165Z,4.92
2018-12-14T09:39:38.283Z,5.16
2018-12-14T09:42:05.798Z,5.40
2018-12-14T09:44:34.022Z,5.72
2018-12-14T09:47:01.464Z,6.56
2018-12-14T09:49:29.054Z,7.41
2018-12-14T09:51:56.467Z,8.54
2018-12-14T09:54:23.877Z,9.22
2018-12-14T09:56:51.304Z,9.54
2018-12-14T09:59:18.755Z,9.71
2018-12-14T10:01:46.296Z,10.02
2018-12-14T10:04:14.257Z,10.58
2018-12-14T10:06:41.701Z,10.93
2018-12-14T10:09:09.124Z,10.81
2018-12-14T10:11:36.616Z,9.92
2018-12-14T10:14:04.135Z,9.95
2018-12-14T10:16:31.103Z,11.22
2018-12-14T10:18:58.755Z,10.87
2018-12-14T10:21:26.279Z,9.69
2018-12-14T10:23:53.711Z,9.04
2018-12-14T10:26:21.156Z,8.64
2018-12-14T10:28:48.721Z,8.08
2018-12-14T10:31:16.148Z,7.82
2018-12-14T10:33:43.698Z,7.54
2018-12-14T10:36:11.110Z,7.26
2018-12-14T10:38:38.675Z,6.65
2018-12-14T10:41:06.194Z,6.46
2018-12-14T10:43:33.617Z,6.37
2018-12-14T10:46:01.097Z,6.29
2018-12-14T10:48:29.578Z,6.29
2018-12-14T10:50:56.983Z,6.17
2018-12-14T10:53:24.411Z,6.11
2018-12-14T10:55:51.819Z,6.14
2018-12-14T10:58:20.449Z,6.20
2018-12-14T11:00:52.393Z,6.12
2018-12-14T11:03:19.797Z,6.04
2018-12-14T11:05:47.246Z,6.11
2018-12-14T11:08:14.676Z,6.18
2018-12-14T11:10:42.091Z,6.18
2018-12-14T11:13:09.635Z,6.50
2018-12-14T11:15:37.201Z,6.83
2018-12-14T11:18:04.605Z,7.03
2018-12-14T11:20:32.105Z,6.68
2018-12-14T11:22:59.528Z,6.70
2018-12-14T11:25:26.929Z,6.60
2018-12-14T11:27:54.457Z,6.52
2018-12-14T11:30:23.478Z,6.59
2018-12-14T11:32:50.916Z,6.55
2018-12-14T11:35:18.482Z,6.39
2018-12-14T11:37:45.908Z,6.30
2018-12-14T11:40:13.457Z,6.04
2018-12-14T11:42:40.865Z,6.06
2018-12-14T11:45:08.341Z,6.10
2018-12-14T11:47:35.967Z,6.23
2018-12-14T11:50:03.983Z,6.27
2018-12-14T11:52:31.396Z,6.38
2018-12-14T11:54:58.813Z,6.40
2018-12-14T11:57:26.265Z,6.47
2018-12-14T11:59:53.860Z,6.59
2018-12-14T12:02:21.561Z,6.55
2018-12-14T12:04:48.994Z,6.69
2018-12-14T12:07:16.446Z,7.90
2018-12-14T12:09:43.911Z,7.59
2018-12-14T12:12:11.345Z,7.36
2018-12-14T12:14:38.886Z,7.50
2018-12-14T12:17:06.323Z,7.16
2018-12-14T12:19:33.731Z,7.58
2018-12-14T12:22:00.694Z,9.70
2018-12-14T12:24:28.119Z,9.05
2018-12-14T12:26:55.533Z,10.11
2018-12-14T12:29:23.033Z,11.97
2018-12-14T12:31:50.432Z,12.41
2018-12-14T12:34:17.933Z,11.94
2018-12-14T12:36:45.475Z,11.49
2018-12-14T12:39:13.399Z,11.26
2018-12-14T12:41:40.823Z,11.74
2018-12-14T12:44:08.610Z,12.23
2018-12-14T12:46:36.067Z,10.38
2018-12-14T12:49:03.494Z,8.95
2018-12-14T12:51:30.904Z,8.27
2018-12-14T12:53:58.366Z,7.68
2018-12-14T12:56:25.795Z,7.25
2018-12-14T12:58:54.422Z,7.03
2018-12-14T13:01:20.758Z,7.06
2018-12-14T13:03:48.855Z,6.55
2018-12-14T13:06:16.269Z,6.31
2018-12-14T13:08:43.717Z,6.34
2018-12-14T13:11:11.222Z,6.33
2018-12-14T13:13:38.634Z,6.14
2018-12-14T13:16:06.059Z,6.23
2018-12-14T13:18:34.363Z,6.10
2018-12-14T13:21:01.761Z,6.04
2018-12-14T13:23:29.248Z,5.92
2018-12-14T13:25:56.687Z,5.99
2018-12-14T13:28:24.263Z,6.05
2018-12-14T13:30:51.774Z,5.99
2018-12-14T13:33:19.268Z,6.08
2018-12-14T13:35:46.669Z,5.96
2018-12-14T13:38:14.089Z,5.95
2018-12-14T13:40:41.553Z,6.01
2018-12-14T13:43:09.217Z,5.90
2018-12-14T13:45:36.837Z,5.79
2018-12-14T13:48:04.307Z,5.72
2018-12-14T13:50:31.931Z,5.77
2018-12-14T13:52:59.464Z,5.76
2018-12-14T13:55:26.912Z,5.84
2018-12-14T13:57:54.343Z,5.84
2018-12-14T14:00:21.760Z,5.77
2018-12-14T14:02:49.179Z,5.70
2018-12-14T14:05:16.585Z,5.67
2018-12-14T14:07:44.071Z,5.73
2018-12-14T14:10:11.500Z,5.76
2018-12-14T14:12:38.911Z,5.76
2018-12-14T14:15:06.177Z,5.76
2018-12-14T14:17:33.165Z,5.75
2018-12-14T14:20:00.563Z,5.75
2018-12-14T14:22:28.086Z,5.88
2018-12-14T14:24:55.842Z,5.87
2018-12-14T14:27:23.269Z,5.83
2018-12-14T14:29:50.705Z,5.80
2018-12-14T14:32:18.294Z,5.79
2018-12-14T14:34:45.695Z,5.76
2018-12-14T14:37:13.185Z,5.74
2018-12-14T14:39:41.002Z,5.80
2018-12-14T14:42:07.957Z,5.73
2018-12-14T14:44:34.975Z,5.68
2018-12-14T14:47:01.987Z,5.62
2018-12-14T14:49:29.055Z,5.66
2018-12-14T14:51:56.041Z,5.70
2018-12-14T14:54:22.989Z,5.70
2018-12-14T14:56:49.925Z,5.65
2018-12-14T14:59:16.879Z,5.58
2018-12-14T15:01:43.834Z,5.59
2018-12-14T15:04:10.790Z,5.60
2018-12-14T15:06:38.216Z,5.55
2018-12-14T15:09:05.159Z,5.35
2018-12-14T15:11:32.118Z,5.38
2018-12-14T15:13:59.160Z,5.46
2018-12-14T15:16:26.103Z,5.49
2018-12-14T15:18:53.070Z,5.60
2018-12-14T15:21:20.076Z,5.55
2018-12-14T15:23:47.025Z,5.48
2018-12-14T15:26:14.044Z,5.55
2018-12-14T15:28:41.020Z,5.49
2018-12-14T15:31:08.156Z,5.36
2018-12-14T15:33:35.115Z,5.35
2018-12-14T15:36:02.087Z,5.34
2018-12-14T15:38:29.143Z,5.30
2018-12-14T15:40:56.123Z,5.37
2018-12-14T15:43:23.103Z,5.39
2018-12-14T15:45:50.113Z,5.41
2018-12-14T15:48:17.087Z,5.37
2018-12-14T15:50:44.569Z,5.18
2018-12-14T15:53:11.515Z,5.17
2018-12-14T15:55:38.461Z,5.24
2018-12-14T15:58:06.957Z,5.26
2018-12-14T16:00:35.034Z,5.30
2018-12-14T16:03:02.819Z,5.33
2018-12-14T16:05:29.782Z,5.35
2018-12-14T16:07:56.764Z,5.29
2018-12-14T16:10:23.714Z,5.23
2018-12-14T16:12:50.740Z,5.19
2018-12-14T16:15:20.261Z,5.16
2018-12-14T16:17:44.889Z,5.14
2018-12-14T16:20:11.924Z,5.14
2018-12-14T16:22:39.268Z,5.12
2018-12-14T16:25:06.480Z,5.18
2018-12-14T16:27:33.533Z,5.30
2018-12-14T16:30:00.564Z,5.23
2018-12-14T16:32:27.591Z,5.24
2018-12-14T16:34:54.589Z,5.26
2018-12-14T16:37:21.568Z,5.24
2018-12-14T16:39:48.867Z,5.25
2018-12-14T16:42:16.281Z,5.27
2018-12-14T16:44:43.694Z,5.33
2018-12-14T16:47:11.194Z,5.23
2018-12-14T16:49:39.087Z,5.14
2018-12-14T16:52:06.519Z,5.23
2018-12-14T16:54:33.977Z,5.28
2018-12-14T16:57:01.410Z,5.23
2018-12-14T16:59:28.810Z,5.24
2018-12-14T17:01:56.354Z,5.15
2018-12-14T17:04:23.756Z,4.95
2018-12-14T17:06:51.231Z,4.93
2018-12-14T17:09:18.797Z,4.95
2018-12-14T17:11:46.271Z,4.92
2018-12-14T17:14:13.801Z,4.91
2018-12-14T17:16:41.225Z,4.88
2018-12-14T17:19:08.747Z,4.96
2018-12-14T17:21:36.221Z,4.91
2018-12-14T17:24:03.969Z,4.86
2018-12-14T17:26:31.116Z,4.92
2018-12-14T17:28:58.130Z,4.92
2018-12-14T17:31:25.167Z,4.91
2018-12-14T17:33:53.434Z,4.75
2018-12-14T17:36:20.833Z,4.71
2018-12-14T17:38:48.251Z,4.62
2018-12-14T17:41:15.725Z,4.64
2018-12-14T17:43:42.734Z,4.75
2018-12-14T17:46:10.793Z,4.85
2018-12-14T17:48:37.735Z,4.92
2018-12-14T17:51:05.181Z,4.91
2018-12-14T17:53:33.210Z,4.84
2018-12-14T17:56:01.301Z,4.82
2018-12-14T17:58:29.170Z,4.91
2018-12-14T18:00:58.644Z,4.97
2018-12-14T18:03:26.760Z,4.98
2018-12-14T18:05:54.544Z,4.96
2018-12-14T18:08:21.741Z,4.97
2018-12-14T18:10:48.673Z,4.95
2018-12-14T18:13:16.080Z,4.94
2018-12-14T18:15:46.310Z,4.92
2018-12-14T18:18:11.697Z,4.97
2018-12-14T18:20:38.903Z,5.03
2018-12-14T18:23:06.216Z,4.97
2018-12-14T18:25:33.338Z,4.91
2018-12-14T18:28:00.582Z,4.90
2018-12-14T18:30:27.636Z,4.93
2018-12-14T18:32:54.756Z,4.84
2018-12-14T18:35:21.734Z,4.88
2018-12-14T18:37:50.031Z,4.82
2018-12-14T18:40:17.071Z,4.74
2018-12-14T18:42:44.775Z,4.71
2018-12-14T18:45:11.830Z,4.69
2018-12-14T18:47:39.035Z,4.73
2018-12-14T18:50:07.290Z,4.77
2018-12-14T18:52:34.640Z,4.68
2018-12-14T18:55:02.118Z,4.78
2018-12-14T18:57:30.960Z,4.81
2018-12-14T18:59:58.589Z,4.82
2018-12-14T19:02:27.139Z,4.74
2018-12-14T19:04:54.788Z,4.80
2018-12-14T19:07:22.295Z,4.82
2018-12-14T19:09:51.014Z,4.88
2018-12-14T19:12:18.716Z,4.89
2018-12-14T19:14:46.865Z,4.89
2018-12-14T19:17:14.458Z,4.84
2018-12-14T19:19:41.958Z,4.87
2018-12-14T19:22:09.784Z,4.92
2018-12-14T19:24:37.717Z,4.83
2018-12-14T19:27:05.501Z,4.81
2018-12-14T19:29:33.440Z,4.87
2018-12-14T19:32:00.960Z,4.81
2018-12-14T19:34:31.385Z,4.78
2018-12-14T19:36:55.809Z,4.81
2018-12-14T19:39:23.867Z,4.80
2018-12-14T19:41:51.396Z,4.81
2018-12-14T19:44:19.074Z,4.73
2018-12-14T19:46:47.612Z,4.75
2018-12-14T19:49:19.759Z,4.64
2018-12-14T19:51:48.669Z,4.57
2018-12-14T19:54:16.333Z,4.61
2018-12-14T19:56:43.862Z,4.64
2018-12-14T19:59:10.812Z,4.67
2018-12-14T20:01:38.588Z,4.65
2018-12-14T20:04:06.740Z,4.66
2018-12-14T20:06:34.210Z,4.64
2018-12-14T20:09:01.636Z,4.63
2018-12-14T20:11:29.064Z,4.60
2018-12-14T20:13:56.491Z,4.54
2018-12-14T20:16:23.888Z,4.47
2018-12-14T20:18:51.321Z,4.41
2018-12-14T20:21:18.737Z,4.39
2018-12-14T20:23:46.139Z,4.39
2018-12-14T20:26:13.603Z,4.50
2018-12-14T20:28:41.032Z,4.50
2018-12-14T20:31:08.461Z,4.47
2018-12-14T20:33:35.869Z,4.52
2018-12-14T20:36:03.291Z,4.52
2018-12-14T20:38:30.721Z,4.57
2018-12-14T20:40:58.203Z,4.52
2018-12-14T20:43:25.615Z,4.60
2018-12-14T20:45:53.093Z,4.63
2018-12-14T20:48:20.495Z,4.61
2018-12-14T20:50:47.903Z,4.59
2018-12-14T20:53:15.576Z,4.55
2018-12-14T20:55:43.769Z,4.62
2018-12-14T20:58:11.232Z,4.65
2018-12-14T21:00:38.702Z,4.61
2018-12-14T21:03:06.267Z,4.59
2018-12-14T21:05:33.735Z,4.47
2018-12-14T21:08:01.537Z,4.29
2018-12-14T21:10:29.166Z,4.22
2018-12-14T21:12:56.649Z,4.19
2018-12-14T21:15:24.188Z,4.28
2018-12-14T21:17:52.416Z,4.33
2018-12-14T21:20:19.849Z,4.32
2018-12-14T21:22:47.430Z,4.40
2018-12-14T21:25:14.862Z,4.41
2018-12-14T21:27:42.986Z,4.52
2018-12-14T21:30:10.637Z,4.60
2018-12-14T21:32:38.071Z,4.56
2018-12-14T21:35:06.363Z,4.47
2018-12-14T21:37:33.891Z,4.48
2018-12-14T21:40:01.375Z,4.40
2018-12-14T21:42:29.194Z,4.48
2018-12-14T21:44:56.618Z,4.51
2018-12-14T21:47:25.512Z,4.50
2018-12-14T21:49:53.256Z,4.53
2018-12-14T21:52:20.692Z,4.51
2018-12-14T21:54:48.255Z,4.40
2018-12-14T21:57:16.859Z,4.43
2018-12-14T21:59:44.479Z,4.29
2018-12-14T22:02:11.928Z,4.24
2018-12-14T22:04:40.765Z,4.24
2018-12-14T22:07:08.424Z,4.23
2018-12-14T22:09:36.045Z,4.22
2018-12-14T22:12:03.772Z,4.28
2018-12-14T22:14:31.316Z,4.30
2018-12-14T22:16:58.963Z,4.34
2018-12-14T22:19:26.566Z,4.33
2018-12-14T22:21:54.323Z,4.42
2018-12-14T22:24:21.808Z,4.44
2018-12-14T22:26:49.344Z,4.39
2018-12-14T22:29:17.287Z,4.38
2018-12-14T22:31:44.691Z,4.30
2018-12-14T22:34:12.199Z,4.28
2018-12-14T22:36:39.610Z,4.25
2018-12-14T22:39:07.293Z,4.16
2018-12-14T22:41:35.267Z,4.18
2018-12-14T22:44:02.690Z,4.21
2018-12-14T22:46:30.371Z,4.19
2018-12-14T22:48:57.831Z,4.18
2018-12-14T22:51:26.400Z,4.14
2018-12-14T22:53:53.948Z,4.10
2018-12-14T22:56:21.472Z,4.13
2018-12-14T22:58:49.116Z,4.06
2018-12-14T23:01:16.548Z,4.13
2018-12-14T23:03:44.126Z,4.10
2018-12-14T23:06:11.593Z,4.10
2018-12-14T23:08:38.994Z,4.18
2018-12-14T23:11:06.557Z,4.16
2018-12-14T23:13:34.029Z,4.12
2018-12-14T23:16:01.538Z,4.06
2018-12-14T23:18:30.003Z,4.01
2018-12-14T23:20:57.768Z,4.07
2018-12-14T23:23:25.650Z,4.00
2018-12-14T23:25:53.300Z,3.95
2018-12-14T23:28:21.555Z,3.95
2018-12-14T23:30:48.970Z,3.93
2018-12-14T23:33:16.499Z,3.98
2018-12-14T23:35:44.058Z,4.00
2018-12-14T23:38:11.757Z,3.92
2018-12-14T23:40:39.299Z,3.92
2018-12-14T23:43:07.932Z,3.97
2018-12-14T23:45:36.300Z,3.94
2018-12-14T23:48:04.068Z,3.99
2018-12-14T23:50:32.527Z,4.04
2018-12-14T23:53:01.025Z,4.02
2018-12-14T23:55:28.640Z,4.03
2018-12-14T23:57:56.365Z,4.02
